La rose des vents
Donnes mto: Semaine 21/07/08 - 27/07/08 (S 30)
Date Horaire Temp. E. Hum. E. P.atmo. Pluie Vent 1mn Direction Ensoleilleme Ev.Tr. Solaire P. de rose Temp au vent Rafales
21/07/2008 00:00 20,9 C 93 % 1009,8 hPa 0,0 l/m 4,9 km/h (1 Bft) O-SO 0,00 h 0,025 mm 0 W/m 19,7 C 20,9 C 7,3 km/h (2 Bft)
21/07/2008 01:00 20,2 C 94 % 1009,2 hPa 0,0 l/m 2,7 km/h (1 Bft) SO 0,00 h 0,025 mm 0 W/m 19,2 C 20,2 C 4,5 km/h (1 Bft)
21/07/2008 02:00 19,7 C 94 % 1008,8 hPa 0,2 l/m 1,9 km/h (1 Bft) SE 0,00 h 0,025 mm 0 W/m 18,8 C 19,7 C 3,4 km/h (1 Bft)
21/07/2008 03:00 18,9 C 95 % 1008,3 hPa 0,0 l/m 3,1 km/h (1 Bft) SO 0,00 h 0,025 mm 0 W/m 18,0 C 18,9 C 4,7 km/h (1 Bft)
21/07/2008 04:00 18,8 C 92 % 1008,1 hPa 0,0 l/m 3,7 km/h (1 Bft) O-NO 0,00 h 0,025 mm 0 W/m 17,5 C 18,8 C 5,8 km/h (2 Bft)
21/07/2008 05:00 18,7 C 87 % 1008,0 hPa 0,0 l/m 3,2 km/h (1 Bft) N-NE 0,00 h 0,025 mm 0 W/m 16,5 C 18,7 C 4,9 km/h (1 Bft)
21/07/2008 06:00 18,7 C 80 % 1008,4 hPa 0,0 l/m 1,1 km/h (0 Bft) NE 0,00 h 0,000 mm 19 W/m 15,2 C 18,7 C 1,7 km/h (1 Bft)
21/07/2008 07:00 20,5 C 82 % 1008,7 hPa 0,0 l/m 1,2 km/h (1 Bft) NE 0,30 h 0,025 mm 112 W/m 17,3 C 20,5 C 2,7 km/h (1 Bft)
21/07/2008 08:00 22,4 C 75 % 1009,0 hPa 0,0 l/m 1,9 km/h (1 Bft) NO 1,00 h 0,076 mm 325 W/m 17,8 C 22,4 C 4,2 km/h (1 Bft)
21/07/2008 09:00 24,4 C 61 % 1009,3 hPa 0,0 l/m 3,6 km/h (1 Bft) S 1,00 h 0,203 mm 501 W/m 16,4 C 24,4 C 6,4 km/h (2 Bft)
21/07/2008 10:00 26,3 C 61 % 1009,5 hPa 0,0 l/m 5,6 km/h (1 Bft) E 1,00 h 0,330 mm 660 W/m 18,0 C 26,3 C 9,2 km/h (2 Bft)
21/07/2008 11:00 27,1 C 66 % 1009,6 hPa 0,0 l/m 9,2 km/h (2 Bft) E 1,00 h 0,457 mm 798 W/m 20,2 C 27,1 C 13,8 km/h (3 Bft)
21/07/2008 12:00 27,6 C 65 % 1009,7 hPa 0,0 l/m 11,6 km/h (2 Bft) E 1,00 h 0,559 mm 851 W/m 20,4 C 27,6 C 16,4 km/h (3 Bft)
21/07/2008 13:00 27,7 C 61 % 1009,5 hPa 0,0 l/m 9,5 km/h (2 Bft) E 1,00 h 0,610 mm 880 W/m 19,4 C 27,7 C 14,7 km/h (3 Bft)
21/07/2008 14:00 28,4 C 54 % 1009,2 hPa 0,0 l/m 8,5 km/h (2 Bft) E 1,00 h 0,635 mm 869 W/m 18,1 C 28,4 C 14,6 km/h (3 Bft)
21/07/2008 15:00 28,6 C 52 % 1009,3 hPa 0,0 l/m 8,3 km/h (2 Bft) E 1,00 h 0,635 mm 822 W/m 17,9 C 28,6 C 14,2 km/h (3 Bft)
21/07/2008 16:00 28,4 C 51 % 1009,2 hPa 0,0 l/m 7,0 km/h (2 Bft) E 0,82 h 0,584 mm 618 W/m 17,2 C 28,4 C 11,2 km/h (2 Bft)
21/07/2008 17:00 26,4 C 59 % 1009,2 hPa 0,0 l/m 4,4 km/h (1 Bft) E-SE 0,02 h 0,457 mm 228 W/m 17,7 C 26,4 C 6,8 km/h (2 Bft)
21/07/2008 18:00 25,7 C 61 % 1008,8 hPa 0,0 l/m 1,4 km/h (1 Bft) E-SE 0,00 h 0,178 mm 132 W/m 17,6 C 25,7 C 2,8 km/h (1 Bft)
21/07/2008 19:00 24,8 C 64 % 1008,6 hPa 0,0 l/m 1,9 km/h (1 Bft) E-SE 0,00 h 0,102 mm 44 W/m 17,5 C 24,8 C 3,3 km/h (1 Bft)
21/07/2008 20:00 24,0 C 71 % 1008,6 hPa 0,0 l/m 1,4 km/h (1 Bft) E-SE 0,05 h 0,051 mm 30 W/m 18,4 C 24,0 C 2,5 km/h (1 Bft)
21/07/2008 21:00 22,8 C 78 % 1008,9 hPa 0,0 l/m 0,5 km/h (0 Bft) E-SE 0,00 h 0,025 mm 11 W/m 18,8 C 22,8 C 1,3 km/h (1 Bft)
21/07/2008 22:00 21,8 C 84 % 1009,5 hPa 0,0 l/m 1,4 km/h (1 Bft) E-SE 0,00 h 0,000 mm 0 W/m 18,9 C 21,8 C 2,0 km/h (1 Bft)
21/07/2008 23:00 20,6 C 87 % 1009,7 hPa 0,0 l/m 1,4 km/h (1 Bft) E-SE 0,00 h 0,025 mm 0 W/m 18,3 C 20,6 C 2,4 km/h (1 Bft)
22/07/2008 00:00 20,2 C 88 % 1009,7 hPa 0,0 l/m 0,3 km/h (0 Bft) NE 0,00 h 0,025 mm 0 W/m 18,1 C 20,2 C 0,6 km/h (0 Bft)
22/07/2008 01:00 20,0 C 89 % 1009,9 hPa 0,0 l/m 2,8 km/h (1 Bft) NO 0,00 h 0,025 mm 0 W/m 18,2 C 20,0 C 3,7 km/h (1 Bft)
22/07/2008 02:00 19,6 C 90 % 1009,7 hPa 0,0 l/m 5,6 km/h (1 Bft) O 0,00 h 0,025 mm 0 W/m 17,9 C 19,6 C 7,5 km/h (2 Bft)
22/07/2008 03:00 18,3 C 88 % 1010,1 hPa 0,0 l/m 4,1 km/h (1 Bft) O-NO 0,00 h 0,025 mm 0 W/m 16,3 C 18,3 C 5,8 km/h (2 Bft)
22/07/2008 04:00 18,2 C 85 % 1010,5 hPa 0,0 l/m 3,6 km/h (1 Bft) O-NO 0,00 h 0,025 mm 0 W/m 15,7 C 18,2 C 5,2 km/h (1 Bft)
22/07/2008 05:00 18,5 C 83 % 1010,8 hPa 0,0 l/m 2,2 km/h (1 Bft) NO 0,00 h 0,025 mm 0 W/m 15,7 C 18,5 C 3,8 km/h (1 Bft)
22/07/2008 06:00 18,5 C 83 % 1011,1 hPa 0,0 l/m 1,9 km/h (1 Bft) NO 0,03 h 0,000 mm 18 W/m 15,6 C 18,5 C 3,3 km/h (1 Bft)
22/07/2008 07:00 19,7 C 81 % 1011,6 hPa 0,0 l/m 0,4 km/h (0 Bft) NO 0,18 h 0,025 mm 79 W/m 16,2 C 19,7 C 1,0 km/h (0 Bft)
22/07/2008 08:00 22,5 C 72 % 1012,1 hPa 0,0 l/m 0,7 km/h (0 Bft) E-SE 1,00 h 0,051 mm 301 W/m 17,2 C 22,5 C 1,9 km/h (1 Bft)
22/07/2008 09:00 25,0 C 56 % 1012,7 hPa 0,0 l/m 4,9 km/h (1 Bft) E 1,00 h 0,178 mm 473 W/m 15,4 C 25,0 C 7,5 km/h (2 Bft)
22/07/2008 10:00 26,3 C 54 % 1013,2 hPa 0,0 l/m 10,2 km/h (2 Bft) E-NE 1,00 h 0,330 mm 628 W/m 16,3 C 26,3 C 14,5 km/h (3 Bft)
22/07/2008 11:00 26,6 C 50 % 1013,8 hPa 0,0 l/m 10,6 km/h (2 Bft) E-NE 1,00 h 0,483 mm 774 W/m 15,4 C 26,6 C 15,5 km/h (3 Bft)
22/07/2008 12:00 26,2 C 49 % 1014,2 hPa 0,0 l/m 8,4 km/h (2 Bft) E 1,00 h 0,584 mm 832 W/m 14,7 C 26,2 C 12,8 km/h (3 Bft)
22/07/2008 13:00 26,7 C 44 % 1014,3 hPa 0,0 l/m 11,9 km/h (2 Bft) E 1,00 h 0,610 mm 844 W/m 13,2 C 26,7 C 17,4 km/h (3 Bft)
22/07/2008 14:00 26,2 C 44 % 1014,6 hPa 0,0 l/m 13,8 km/h (3 Bft) S 1,00 h 0,660 mm 802 W/m 12,9 C 26,2 C 20,7 km/h (4 Bft)
22/07/2008 15:00 26,1 C 45 % 1014,7 hPa 0,0 l/m 12,4 km/h (3 Bft) S 1,00 h 0,635 mm 777 W/m 13,2 C 26,1 C 18,8 km/h (3 Bft)
22/07/2008 16:00 25,8 C 48 % 1014,6 hPa 0,0 l/m 9,4 km/h (2 Bft) S-SE 1,00 h 0,610 mm 666 W/m 13,9 C 25,8 C 15,2 km/h (3 Bft)
22/07/2008 17:00 25,5 C 49 % 1014,6 hPa 0,0 l/m 10,6 km/h (2 Bft) S 1,00 h 0,508 mm 516 W/m 14,0 C 25,5 C 16,2 km/h (3 Bft)
22/07/2008 18:00 24,9 C 51 % 1014,6 hPa 0,0 l/m 12,0 km/h (2 Bft) S 1,00 h 0,406 mm 351 W/m 14,1 C 24,9 C 16,6 km/h (3 Bft)
22/07/2008 19:00 24,0 C 56 % 1014,6 hPa 0,0 l/m 10,2 km/h (2 Bft) S 1,00 h 0,330 mm 183 W/m 14,5 C 24,0 C 14,2 km/h (3 Bft)
22/07/2008 20:00 22,5 C 59 % 1014,6 hPa 0,0 l/m 4,8 km/h (1 Bft) S 0,15 h 0,203 mm 30 W/m 14,0 C 22,5 C 6,6 km/h (2 Bft)
22/07/2008 21:00 20,8 C 63 % 1014,9 hPa 0,0 l/m 4,8 km/h (1 Bft) O 0,00 h 0,051 mm 6 W/m 13,5 C 20,8 C 6,7 km/h (2 Bft)
22/07/2008 22:00 19,9 C 65 % 1015,5 hPa 0,0 l/m 7,4 km/h (2 Bft) O 0,00 h 0,025 mm 0 W/m 13,0 C 19,9 C 9,9 km/h (2 Bft)
22/07/2008 23:00 19,4 C 64 % 1015,9 hPa 0,0 l/m 8,6 km/h (2 Bft) O-NO 0,00 h 0,076 mm 0 W/m 12,4 C 19,4 C 11,6 km/h (2 Bft)
23/07/2008 00:00 19,0 C 66 % 1016,1 hPa 0,0 l/m 11,6 km/h (2 Bft) O-NO 0,00 h 0,076 mm 0 W/m 12,5 C 19,0 C 15,8 km/h (3 Bft)
23/07/2008 01:00 18,7 C 66 % 1016,0 hPa 0,0 l/m 9,9 km/h (2 Bft) O-NO 0,00 h 0,076 mm 0 W/m 12,1 C 18,7 C 13,8 km/h (3 Bft)
23/07/2008 02:00 18,4 C 67 % 1015,7 hPa 0,0 l/m 5,2 km/h (1 Bft) O-NO 0,00 h 0,076 mm 0 W/m 12,2 C 18,4 C 7,6 km/h (2 Bft)
23/07/2008 03:00 18,3 C 66 % 1015,5 hPa 0,0 l/m 4,3 km/h (1 Bft) NO 0,00 h 0,051 mm 0 W/m 11,9 C 18,3 C 6,7 km/h (2 Bft)
23/07/2008 04:00 18,1 C 66 % 1015,2 hPa 0,0 l/m 2,6 km/h (1 Bft) N-NO 0,00 h 0,051 mm 0 W/m 11,8 C 18,1 C 4,2 km/h (1 Bft)
23/07/2008 05:00 18,4 C 62 % 1015,2 hPa 0,0 l/m 5,8 km/h (2 Bft) O 0,00 h 0,051 mm 0 W/m 11,0 C 18,4 C 7,6 km/h (2 Bft)
23/07/2008 06:00 18,7 C 56 % 1015,3 hPa 0,0 l/m 5,2 km/h (1 Bft) NO 0,00 h 0,051 mm 14 W/m 9,7 C 18,7 C 7,5 km/h (2 Bft)
23/07/2008 07:00 19,7 C 51 % 1015,2 hPa 0,0 l/m 2,4 km/h (1 Bft) N-NO 0,17 h 0,051 mm 68 W/m 9,3 C 19,7 C 4,4 km/h (1 Bft)
23/07/2008 08:00 23,1 C 43 % 1014,8 hPa 0,0 l/m 0,4 km/h (0 Bft) N-NO 1,00 h 0,076 mm 320 W/m 10,0 C 23,1 C 1,7 km/h (1 Bft)
23/07/2008 09:00 25,9 C 38 % 1014,6 hPa 0,0 l/m 3,9 km/h (1 Bft) NE 1,00 h 0,203 mm 494 W/m 10,4 C 25,9 C 6,6 km/h (2 Bft)
23/07/2008 10:00 27,6 C 28 % 1014,5 hPa 0,0 l/m 5,9 km/h (2 Bft) E 1,00 h 0,356 mm 648 W/m 7,4 C 27,6 C 9,6 km/h (2 Bft)
23/07/2008 11:00 28,1 C 28 % 1014,6 hPa 0,0 l/m 9,8 km/h (2 Bft) S-SE 1,00 h 0,508 mm 769 W/m 7,9 C 28,1 C 15,0 km/h (3 Bft)
23/07/2008 12:00 28,6 C 27 % 1014,8 hPa 0,0 l/m 9,2 km/h (2 Bft) E 1,00 h 0,635 mm 850 W/m 7,7 C 28,6 C 16,1 km/h (3 Bft)
23/07/2008 13:00 28,6 C 30 % 1014,8 hPa 0,0 l/m 11,6 km/h (2 Bft) E 1,00 h 0,686 mm 879 W/m 9,3 C 28,6 C 18,3 km/h (3 Bft)
23/07/2008 14:00 27,6 C 41 % 1014,6 hPa 0,0 l/m 11,8 km/h (2 Bft) E 1,00 h 0,711 mm 853 W/m 13,2 C 27,6 C 17,6 km/h (3 Bft)
23/07/2008 15:00 27,1 C 36 % 1014,2 hPa 0,0 l/m 11,0 km/h (2 Bft) S-SE 1,00 h 0,660 mm 784 W/m 10,9 C 27,1 C 16,2 km/h (3 Bft)
23/07/2008 16:00 27,1 C 35 % 1013,7 hPa 0,0 l/m 9,6 km/h (2 Bft) SE 1,00 h 0,635 mm 668 W/m 10,3 C 27,1 C 15,6 km/h (3 Bft)
23/07/2008 17:00 26,8 C 34 % 1013,4 hPa 0,0 l/m 9,9 km/h (2 Bft) S-SE 1,00 h 0,533 mm 520 W/m 9,5 C 26,8 C 14,7 km/h (3 Bft)
23/07/2008 18:00 25,8 C 41 % 1012,9 hPa 0,0 l/m 9,6 km/h (2 Bft) S-SE 1,00 h 0,457 mm 354 W/m 11,4 C 25,8 C 14,6 km/h (3 Bft)
23/07/2008 19:00 25,2 C 40 % 1012,7 hPa 0,0 l/m 10,4 km/h (2 Bft) S 1,00 h 0,330 mm 189 W/m 10,5 C 25,2 C 14,5 km/h (3 Bft)
23/07/2008 20:00 23,4 C 43 % 1012,8 hPa 0,0 l/m 2,7 km/h (1 Bft) S-SO 0,10 h 0,229 mm 27 W/m 10,0 C 23,4 C 4,2 km/h (1 Bft)
23/07/2008 21:00 21,7 C 47 % 1013,0 hPa 0,0 l/m 1,1 km/h (1 Bft) S-SO 0,00 h 0,051 mm 5 W/m 10,0 C 21,7 C 2,0 km/h (1 Bft)
23/07/2008 22:00 20,3 C 54 % 1013,4 hPa 0,0 l/m 1,3 km/h (1 Bft) S-SO 0,00 h 0,025 mm 0 W/m 10,7 C 20,3 C 2,9 km/h (1 Bft)
23/07/2008 23:00 19,9 C 60 % 1013,5 hPa 0,0 l/m 3,3 km/h (1 Bft) S-SO 0,00 h 0,051 mm 0 W/m 11,9 C 19,9 C 5,0 km/h (1 Bft)
24/07/2008 00:00 19,5 C 61 % 1013,5 hPa 0,0 l/m 1,7 km/h (1 Bft) SO 0,00 h 0,051 mm 0 W/m 11,6 C 19,5 C 3,1 km/h (1 Bft)
24/07/2008 01:00 19,6 C 58 % 1013,4 hPa 0,0 l/m 2,7 km/h (1 Bft) O-SO 0,00 h 0,051 mm 0 W/m 11,2 C 19,6 C 4,1 km/h (1 Bft)
24/07/2008 02:00 19,3 C 58 % 1013,3 hPa 0,0 l/m 4,3 km/h (1 Bft) O-SO 0,00 h 0,051 mm 0 W/m 10,8 C 19,3 C 5,5 km/h (1 Bft)
24/07/2008 03:00 19,1 C 57 % 1012,9 hPa 0,0 l/m 4,2 km/h (1 Bft) O-NO 0,00 h 0,051 mm 0 W/m 10,4 C 19,1 C 5,8 km/h (2 Bft)
24/07/2008 04:00 18,6 C 58 % 1012,7 hPa 0,0 l/m 2,3 km/h (1 Bft) N-NO 0,00 h 0,051 mm 0 W/m 10,3 C 18,6 C 3,9 km/h (1 Bft)
24/07/2008 05:00 18,7 C 58 % 1012,5 hPa 0,0 l/m 3,1 km/h (1 Bft) N-NO 0,00 h 0,051 mm 0 W/m 10,3 C 18,7 C 4,3 km/h (1 Bft)
24/07/2008 06:00 18,6 C 61 % 1012,5 hPa 0,0 l/m 3,1 km/h (1 Bft) O-NO 0,02 h 0,025 mm 14 W/m 10,9 C 18,6 C 4,4 km/h (1 Bft)
24/07/2008 07:00 19,2 C 59 % 1012,2 hPa 0,0 l/m 1,9 km/h (1 Bft) O-NO 0,18 h 0,025 mm 67 W/m 11,0 C 19,2 C 3,3 km/h (1 Bft)
24/07/2008 08:00 22,5 C 53 % 1012,0 hPa 0,0 l/m 0,7 km/h (0 Bft) O-NO 1,00 h 0,051 mm 311 W/m 12,3 C 22,5 C 2,2 km/h (1 Bft)
24/07/2008 09:00 24,3 C 53 % 1011,7 hPa 0,0 l/m 3,4 km/h (1 Bft) S-SO 1,00 h 0,203 mm 481 W/m 14,1 C 24,3 C 6,4 km/h (2 Bft)
24/07/2008 10:00 26,0 C 50 % 1011,4 hPa 0,0 l/m 7,6 km/h (2 Bft) S-SO 1,00 h 0,330 mm 636 W/m 14,8 C 26,0 C 11,6 km/h (2 Bft)
24/07/2008 11:00 27,4 C 44 % 1011,0 hPa 0,0 l/m 12,9 km/h (3 Bft) S 1,00 h 0,483 mm 767 W/m 13,9 C 27,4 C 18,7 km/h (3 Bft)
24/07/2008 12:00 28,1 C 40 % 1010,8 hPa 0,0 l/m 13,5 km/h (3 Bft) S 1,00 h 0,635 mm 845 W/m 13,3 C 28,1 C 19,7 km/h (3 Bft)
24/07/2008 13:00 27,8 C 40 % 1010,6 hPa 0,0 l/m 16,9 km/h (3 Bft) S-SE 1,00 h 0,686 mm 878 W/m 12,9 C 27,8 C 23,7 km/h (4 Bft)
24/07/2008 14:00 28,0 C 35 % 1010,5 hPa 0,0 l/m 18,2 km/h (3 Bft) S 1,00 h 0,737 mm 856 W/m 10,8 C 28,0 C 25,2 km/h (4 Bft)
24/07/2008 15:00 27,4 C 35 % 1010,7 hPa 0,0 l/m 18,8 km/h (3 Bft) S 1,00 h 0,762 mm 765 W/m 10,4 C 27,4 C 26,0 km/h (4 Bft)
24/07/2008 16:00 26,3 C 44 % 1010,8 hPa 0,0 l/m 12,7 km/h (3 Bft) S-SE 0,75 h 0,711 mm 547 W/m 13,0 C 26,3 C 19,0 km/h (3 Bft)
24/07/2008 17:00 24,9 C 53 % 1011,0 hPa 0,0 l/m 6,5 km/h (2 Bft) SE 0,20 h 0,457 mm 269 W/m 14,6 C 24,9 C 10,6 km/h (2 Bft)
24/07/2008 18:00 23,9 C 62 % 1010,6 hPa 0,0 l/m 4,4 km/h (1 Bft) E 0,07 h 0,229 mm 162 W/m 16,1 C 23,9 C 7,2 km/h (2 Bft)
24/07/2008 19:00 23,2 C 66 % 1010,3 hPa 0,0 l/m 4,4 km/h (1 Bft) E-NE 0,20 h 0,127 mm 115 W/m 16,5 C 23,2 C 6,6 km/h (2 Bft)
24/07/2008 20:00 22,2 C 72 % 1010,0 hPa 0,0 l/m 2,3 km/h (1 Bft) E-NE 0,27 h 0,102 mm 43 W/m 17,0 C 22,2 C 4,4 km/h (1 Bft)
24/07/2008 21:00 20,7 C 80 % 1010,2 hPa 0,0 l/m 2,3 km/h (1 Bft) E-NE 0,00 h 0,051 mm 6 W/m 17,1 C 20,7 C 4,1 km/h (1 Bft)
24/07/2008 22:00 19,5 C 85 % 1010,3 hPa 0,0 l/m 1,6 km/h (1 Bft) E-NE 0,00 h 0,025 mm 0 W/m 17,0 C 19,5 C 3,5 km/h (1 Bft)
24/07/2008 23:00 18,9 C 87 % 1010,4 hPa 0,0 l/m 1,5 km/h (1 Bft) E-NE 0,00 h 0,025 mm 0 W/m 16,6 C 18,9 C 3,3 km/h (1 Bft)
25/07/2008 00:00 18,4 C 87 % 1010,5 hPa 0,0 l/m 1,1 km/h (1 Bft) N-NE 0,00 h 0,025 mm 0 W/m 16,3 C 18,4 C 2,9 km/h (1 Bft)
25/07/2008 01:00 18,5 C 88 % 1010,3 hPa 0,0 l/m 2,6 km/h (1 Bft) N-NO 0,00 h 0,025 mm 0 W/m 16,5 C 18,5 C 4,9 km/h (1 Bft)
25/07/2008 02:00 18,5 C 88 % 1009,7 hPa 0,0 l/m 0,6 km/h (0 Bft) N-NO 0,00 h 0,025 mm 0 W/m 16,6 C 18,5 C 1,6 km/h (1 Bft)
25/07/2008 03:00 18,0 C 88 % 1009,2 hPa 0,0 l/m 2,5 km/h (1 Bft) N-NO 0,00 h 0,025 mm 0 W/m 15,9 C 18,0 C 3,8 km/h (1 Bft)
25/07/2008 04:00 18,3 C 87 % 1009,3 hPa 0,0 l/m 3,6 km/h (1 Bft) O 0,00 h 0,025 mm 0 W/m 16,1 C 18,3 C 5,2 km/h (1 Bft)
25/07/2008 05:00 18,3 C 86 % 1009,0 hPa 0,0 l/m 0,6 km/h (0 Bft) O-NO 0,00 h 0,025 mm 0 W/m 15,9 C 18,3 C 1,1 km/h (1 Bft)
25/07/2008 06:00 18,6 C 85 % 1009,6 hPa 0,0 l/m 1,2 km/h (1 Bft) O-NO 0,02 h 0,000 mm 15 W/m 16,1 C 18,6 C 2,8 km/h (1 Bft)
25/07/2008 07:00 19,8 C 84 % 1010,0 hPa 0,0 l/m 0,2 km/h (0 Bft) O-NO 0,17 h 0,025 mm 72 W/m 17,1 C 19,8 C 0,6 km/h (0 Bft)
25/07/2008 08:00 22,0 C 78 % 1010,1 hPa 0,0 l/m 1,7 km/h (1 Bft) O-NO 0,90 h 0,051 mm 306 W/m 18,0 C 22,0 C 3,5 km/h (1 Bft)
25/07/2008 09:00 23,2 C 73 % 1009,9 hPa 0,0 l/m 3,3 km/h (1 Bft) E-SE 0,63 h 0,178 mm 378 W/m 18,1 C 23,2 C 5,7 km/h (1 Bft)
25/07/2008 10:00 23,5 C 71 % 1009,9 hPa 0,0 l/m 4,9 km/h (1 Bft) S-SE 0,18 h 0,254 mm 309 W/m 17,8 C 23,5 C 7,6 km/h (2 Bft)
25/07/2008 11:00 24,3 C 69 % 1009,9 hPa 0,0 l/m 8,5 km/h (2 Bft) E 0,28 h 0,203 mm 476 W/m 18,2 C 24,3 C 12,9 km/h (3 Bft)
25/07/2008 12:00 26,1 C 63 % 1009,7 hPa 0,0 l/m 11,7 km/h (2 Bft) E 0,90 h 0,356 mm 821 W/m 18,6 C 26,1 C 17,1 km/h (3 Bft)
25/07/2008 13:00 26,3 C 64 % 1009,4 hPa 0,0 l/m 10,5 km/h (2 Bft) E 0,75 h 0,610 mm 736 W/m 18,9 C 26,3 C 16,0 km/h (3 Bft)
25/07/2008 14:00 25,3 C 67 % 1009,5 hPa 0,0 l/m 10,3 km/h (2 Bft) E 0,07 h 0,533 mm 410 W/m 18,6 C 25,3 C 14,9 km/h (3 Bft)
25/07/2008 15:00 25,8 C 64 % 1009,7 hPa 0,0 l/m 6,7 km/h (2 Bft) E 0,18 h 0,330 mm 413 W/m 18,5 C 25,8 C 10,7 km/h (2 Bft)
25/07/2008 16:00 24,6 C 70 % 1009,3 hPa 0,0 l/m 5,1 km/h (1 Bft) S-SE 0,00 h 0,305 mm 115 W/m 18,7 C 24,6 C 8,1 km/h (2 Bft)
25/07/2008 17:00 23,7 C 75 % 1009,0 hPa 0,0 l/m 3,3 km/h (1 Bft) E-SE 0,00 h 0,102 mm 66 W/m 19,0 C 23,7 C 5,7 km/h (1 Bft)
25/07/2008 18:00 23,2 C 79 % 1008,8 hPa 0,0 l/m 3,8 km/h (1 Bft) S 0,00 h 0,051 mm 56 W/m 19,4 C 23,2 C 5,9 km/h (2 Bft)
25/07/2008 19:00 23,1 C 81 % 1008,7 hPa 0,0 l/m 1,1 km/h (1 Bft) E-SE 0,00 h 0,051 mm 37 W/m 19,6 C 23,1 C 2,6 km/h (1 Bft)
25/07/2008 20:00 22,8 C 83 % 1008,8 hPa 0,0 l/m 1,1 km/h (1 Bft) E-SE 0,00 h 0,025 mm 12 W/m 19,8 C 22,8 C 2,3 km/h (1 Bft)
25/07/2008 21:00 22,3 C 86 % 1008,9 hPa 0,0 l/m 4,3 km/h (1 Bft) S 0,00 h 0,025 mm 0 W/m 19,9 C 22,3 C 6,1 km/h (2 Bft)
25/07/2008 22:00 21,8 C 89 % 1009,0 hPa 0,0 l/m 2,9 km/h (1 Bft) S 0,00 h 0,025 mm 0 W/m 19,9 C 21,8 C 4,2 km/h (1 Bft)
25/07/2008 23:00 21,7 C 89 % 1008,9 hPa 0,0 l/m 1,0 km/h (0 Bft) S 0,00 h 0,025 mm 0 W/m 19,8 C 21,7 C 1,8 km/h (1 Bft)
26/07/2008 00:00 21,6 C 90 % 1009,1 hPa 0,0 l/m 0,0 km/h (0 Bft) N 0,00 h 0,025 mm 0 W/m 19,8 C 21,6 C 0,0 km/h (0 Bft)
26/07/2008 01:00 21,4 C 90 % 1009,2 hPa 0,0 l/m 0,1 km/h (0 Bft) S 0,00 h 0,025 mm 0 W/m 19,7 C 21,4 C 0,3 km/h (0 Bft)
26/07/2008 02:00 21,4 C 90 % 1009,2 hPa 0,0 l/m 0,0 km/h (0 Bft) N 0,00 h 0,025 mm 0 W/m 19,7 C 21,4 C 0,0 km/h (0 Bft)
26/07/2008 03:00 21,3 C 91 % 1009,2 hPa 0,0 l/m 0,1 km/h (0 Bft) S 0,00 h 0,025 mm 0 W/m 19,7 C 21,3 C 0,3 km/h (0 Bft)
26/07/2008 04:00 21,1 C 91 % 1009,1 hPa 0,0 l/m 0,0 km/h (0 Bft) N 0,00 h 0,025 mm 0 W/m 19,6 C 21,1 C 0,0 km/h (0 Bft)
26/07/2008 05:00 20,8 C 91 % 1008,8 hPa 0,0 l/m 0,0 km/h (0 Bft) N 0,00 h 0,025 mm 0 W/m 19,2 C 20,8 C 0,0 km/h (0 Bft)
26/07/2008 06:00 20,5 C 92 % 1009,1 hPa 0,0 l/m 1,0 km/h (0 Bft) S 0,00 h 0,000 mm 16 W/m 19,1 C 20,5 C 1,9 km/h (1 Bft)
26/07/2008 07:00 20,6 C 93 % 1009,2 hPa 0,0 l/m 0,0 km/h (0 Bft) S 0,10 h 0,000 mm 78 W/m 19,4 C 20,6 C 0,1 km/h (0 Bft)
26/07/2008 08:00 22,0 C 91 % 1009,7 hPa 0,0 l/m 0,7 km/h (0 Bft) S 0,43 h 0,051 mm 212 W/m 20,4 C 22,0 C 1,9 km/h (1 Bft)
26/07/2008 09:00 23,6 C 80 % 1009,9 hPa 0,0 l/m 3,4 km/h (1 Bft) E-SE 0,32 h 0,127 mm 267 W/m 19,9 C 23,6 C 5,8 km/h (2 Bft)
26/07/2008 10:00 24,0 C 79 % 1010,1 hPa 0,0 l/m 4,6 km/h (1 Bft) S-SE 0,10 h 0,178 mm 201 W/m 20,2 C 24,0 C 7,2 km/h (2 Bft)
26/07/2008 11:00 23,7 C 80 % 1010,3 hPa 0,0 l/m 5,3 km/h (1 Bft) S 0,00 h 0,152 mm 282 W/m 20,1 C 23,7 C 8,4 km/h (2 Bft)
26/07/2008 12:00 25,2 C 75 % 1010,2 hPa 0,0 l/m 6,1 km/h (2 Bft) S-SE 0,50 h 0,203 mm 475 W/m 20,4 C 25,2 C 9,5 km/h (2 Bft)
26/07/2008 13:00 26,1 C 71 % 1009,9 hPa 0,0 l/m 6,9 km/h (2 Bft) S 0,25 h 0,330 mm 425 W/m 20,4 C 26,1 C 10,8 km/h (2 Bft)
26/07/2008 14:00 26,9 C 66 % 1009,7 hPa 0,0 l/m 10,0 km/h (2 Bft) S 0,90 h 0,330 mm 752 W/m 19,9 C 26,9 C 15,4 km/h (3 Bft)
26/07/2008 15:00 27,1 C 65 % 1009,7 hPa 0,0 l/m 9,4 km/h (2 Bft) E 0,60 h 0,559 mm 564 W/m 19,8 C 27,1 C 14,5 km/h (3 Bft)
26/07/2008 16:00 24,8 C 75 % 1009,9 hPa 0,0 l/m 5,9 km/h (2 Bft) E 0,02 h 0,406 mm 192 W/m 19,9 C 24,8 C 9,0 km/h (2 Bft)
26/07/2008 17:00 24,5 C 75 % 1009,8 hPa 0,0 l/m 3,3 km/h (1 Bft) S 0,12 h 0,152 mm 204 W/m 19,8 C 24,5 C 5,7 km/h (1 Bft)
26/07/2008 18:00 23,7 C 80 % 1009,3 hPa 0,0 l/m 6,6 km/h (2 Bft) SO 0,00 h 0,152 mm 92 W/m 20,0 C 23,7 C 8,7 km/h (2 Bft)
26/07/2008 19:00 23,3 C 81 % 1009,6 hPa 0,0 l/m 4,1 km/h (1 Bft) S-SO 0,00 h 0,076 mm 29 W/m 19,9 C 23,3 C 6,2 km/h (2 Bft)
26/07/2008 20:00 22,8 C 83 % 1009,5 hPa 0,4 l/m 2,7 km/h (1 Bft) S-SO 0,00 h 0,025 mm 12 W/m 19,7 C 22,8 C 4,1 km/h (1 Bft)
26/07/2008 21:00 21,6 C 88 % 1009,8 hPa 0,0 l/m 2,5 km/h (1 Bft) O-SO 0,00 h 0,025 mm 9 W/m 19,6 C 21,6 C 3,8 km/h (1 Bft)
26/07/2008 22:00 20,9 C 91 % 1010,1 hPa 0,0 l/m 3,5 km/h (1 Bft) O-NO 0,00 h 0,000 mm 0 W/m 19,3 C 20,9 C 5,3 km/h (1 Bft)
26/07/2008 23:00 20,0 C 92 % 1010,3 hPa 0,0 l/m 1,8 km/h (1 Bft) N-NO 0,00 h 0,025 mm 0 W/m 18,6 C 20,0 C 3,5 km/h (1 Bft)
27/07/2008 00:00 19,3 C 92 % 1010,1 hPa 0,0 l/m 2,0 km/h (1 Bft) N-NO 0,00 h 0,025 mm 0 W/m 17,9 C 19,3 C 3,4 km/h (1 Bft)
27/07/2008 01:00 18,9 C 92 % 1010,1 hPa 0,0 l/m 3,4 km/h (1 Bft) O-NO 0,00 h 0,025 mm 0 W/m 17,6 C 18,9 C 4,7 km/h (1 Bft)
27/07/2008 02:00 18,9 C 90 % 1009,8 hPa 0,0 l/m 6,1 km/h (2 Bft) O 0,00 h 0,025 mm 0 W/m 17,2 C 18,9 C 8,2 km/h (2 Bft)
27/07/2008 03:00 18,7 C 84 % 1009,6 hPa 0,0 l/m 3,9 km/h (1 Bft) NO 0,00 h 0,025 mm 0 W/m 16,0 C 18,7 C 5,7 km/h (1 Bft)
27/07/2008 04:00 18,3 C 82 % 1009,8 hPa 0,0 l/m 2,6 km/h (1 Bft) NO 0,00 h 0,025 mm 0 W/m 15,1 C 18,3 C 3,9 km/h (1 Bft)
27/07/2008 05:00 18,4 C 79 % 1009,5 hPa 0,0 l/m 2,6 km/h (1 Bft) NO 0,00 h 0,025 mm 0 W/m 14,7 C 18,4 C 3,8 km/h (1 Bft)
27/07/2008 06:00 17,3 C 81 % 1010,2 hPa 0,0 l/m 2,6 km/h (1 Bft) NO 0,02 h 0,025 mm 14 W/m 14,1 C 17,3 C 4,2 km/h (1 Bft)
27/07/2008 07:00 18,6 C 80 % 1010,7 hPa 0,0 l/m 2,0 km/h (1 Bft) N 0,28 h 0,025 mm 97 W/m 15,2 C 18,6 C 4,6 km/h (1 Bft)
27/07/2008 08:00 22,4 C 65 % 1010,9 hPa 0,0 l/m 2,5 km/h (1 Bft) NE 0,97 h 0,076 mm 277 W/m 15,5 C 22,4 C 4,9 km/h (1 Bft)
27/07/2008 09:00 25,2 C 61 % 1011,3 hPa 0,0 l/m 5,5 km/h (1 Bft) NE 1,00 h 0,178 mm 458 W/m 17,2 C 25,2 C 8,7 km/h (2 Bft)
27/07/2008 10:00 27,1 C 59 % 1011,3 hPa 0,0 l/m 7,2 km/h (2 Bft) E 1,00 h 0,330 mm 614 W/m 18,5 C 27,1 C 11,4 km/h (2 Bft)
27/07/2008 11:00 27,9 C 59 % 1011,5 hPa 0,0 l/m 6,9 km/h (2 Bft) E 1,00 h 0,457 mm 735 W/m 19,2 C 27,9 C 10,9 km/h (2 Bft)
27/07/2008 12:00 28,7 C 52 % 1011,8 hPa 0,0 l/m 6,5 km/h (2 Bft) SE 1,00 h 0,533 mm 819 W/m 17,7 C 28,7 C 10,6 km/h (2 Bft)
27/07/2008 13:00 29,3 C 47 % 1011,9 hPa 0,0 l/m 8,3 km/h (2 Bft) E 1,00 h 0,584 mm 857 W/m 16,7 C 29,3 C 13,8 km/h (3 Bft)
27/07/2008 14:00 29,3 C 47 % 1011,9 hPa 0,0 l/m 8,0 km/h (2 Bft) E 1,00 h 0,635 mm 831 W/m 16,8 C 29,3 C 13,1 km/h (3 Bft)
27/07/2008 15:00 29,1 C 48 % 1011,9 hPa 0,0 l/m 7,2 km/h (2 Bft) E-SE 1,00 h 0,635 mm 757 W/m 17,0 C 29,1 C 11,9 km/h (2 Bft)
27/07/2008 16:00 29,2 C 50 % 1011,9 hPa 0,0 l/m 7,0 km/h (2 Bft) E 1,00 h 0,559 mm 646 W/m 17,5 C 29,2 C 10,9 km/h (2 Bft)
27/07/2008 17:00 28,9 C 49 % 1011,8 hPa 0,0 l/m 6,0 km/h (2 Bft) E 1,00 h 0,483 mm 497 W/m 17,1 C 28,9 C 9,0 km/h (2 Bft)
27/07/2008 18:00 28,5 C 51 % 1011,9 hPa 0,0 l/m 3,2 km/h (1 Bft) E-SE 0,93 h 0,381 mm 319 W/m 17,4 C 28,5 C 5,7 km/h (1 Bft)
27/07/2008 19:00 27,3 C 56 % 1011,9 hPa 0,0 l/m 1,7 km/h (1 Bft) S-SE 0,32 h 0,254 mm 115 W/m 17,5 C 27,3 C 3,6 km/h (1 Bft)
27/07/2008 20:00 25,6 C 61 % 1012,1 hPa 0,0 l/m 0,2 km/h (0 Bft) S-SE 0,02 h 0,102 mm 28 W/m 17,3 C 25,6 C 0,4 km/h (0 Bft)
27/07/2008 21:00 24,4 C 63 % 1012,4 hPa 0,0 l/m 0,0 km/h (0 Bft) S-SE 0,00 h 0,025 mm 0 W/m 16,9 C 24,4 C 0,1 km/h (0 Bft)
27/07/2008 22:00 24,0 C 65 % 1012,7 hPa 0,0 l/m 0,3 km/h (0 Bft) S-SE 0,00 h 0,000 mm 0 W/m 17,0 C 24,0 C 0,7 km/h (0 Bft)
27/07/2008 23:00 23,5 C 68 % 1012,7 hPa 0,0 l/m 4,2 km/h (1 Bft) O-NO 0,00 h 0,051 mm 0 W/m 17,3 C 23,5 C 6,2 km/h (2 Bft)
Min-Date _ 27/07/08 23/07/08 21/07/08 - 21/07/08 - - - - 23/07/08 27/07/08 21/07/08
_ Min-Heure 06:05 10:09 05:00 - 00:22 - - - - 10:09 06:05 00:52
Minimum _ 17,1 C 25 % 1007,8 hPa - 0,0 km/h (0 Bft) - - - - 6,0 C 17,1 C 0,0 km/h (0 Bft)
Max-Date _ 27/07/08 21/07/08 23/07/08 26/07/08 22/07/08 - 21/07/08 24/07/08 26/07/08 26/07/08 27/07/08 22/07/08
_ Max-Heure 13:49 02:30 00:45 20:34 13:49 - 07:08 15:00 14:11 13:40 13:49 14:31
Maximum _ 30,2 C 95 % 1016,3 hPa 0,4 l/m 24,1 km/h
E (4 Bft)
- 0,02 h 0,762 mm 1037 W/m 21,0 C 30,2 C 37,0 km/h
S-SE (5 Bft)
Moyenne _ 23,0 C 67 % 1011,2 hPa #0,6 l/m 5,0 km/h (1 Bft) E #62:27 h #35,339 mm 395 W/m 15,9 C 23,0 C 7,7 km/h (2 Bft)
Roquefort les pins